Sunday, November 18, 2018, 3:13 PM GMT
Back to Local

CWWE, Western Head, N. S.

Location: , , Canada Lat: 43.983
Local Time: 3:13 PM GMT (15:13 GMT) Lon: -64.667
Time Zone: GMT Elev: 29 ft

Show me the last for .
Show Coded

Time T Td Feel RH Dir Speed Gust Alt SLP Vis Weather Sky Remarks
2018-11-18 14:00 36 23 29 58 340° 8 - - 30.30 0 None
2018-11-18 13:00 33 25 28 71 330° 6 - - 30.29 0 None
2018-11-18 12:00 32 26 25 79 330° 8 - - 30.26 0 None
2018-11-18 11:00 33 28 29 82 310° 5 - - 30.21 0 None
2018-11-18 10:00 32 29 - 91 270° 2 - - 30.18 0 None
2018-11-18 09:00 33 30 - 89 270° 2 - - 30.15 0 None
2018-11-18 08:00 33 31 30 89 250° 3 - - 30.13 0 None
2018-11-18 07:00 33 30 30 87 280° 3 - - 30.12 0 None
2018-11-18 06:00 34 29 30 80 330° 5 - - 30.10 0 None
2018-11-18 05:00 31 28 26 88 300° 6 - - 30.09 0 None
2018-11-18 04:00 31 27 27 85 250° 3 - - 30.07 0 None
2018-11-18 03:00 31 27 25 83 240° 6 - - 30.07 0 None
2018-11-18 02:00 30 26 26 82 260° 5 - - 30.06 0 None
2018-11-18 01:00 31 26 26 81 260° 6 - - 30.04 0 None
2018-11-18 00:00 32 26 27 80 260° 5 - - 30.03 0 None
2018-11-17 23:00 34 26 30 72 270° 5 - - 30.00 0 None
2018-11-17 22:00 35 26 30 68 290° 6 - - 29.98 0 Peak wind: 20 mph (18 kts) from 260° at 15 min
2018-11-17 21:00 39 26 30 60 290° 12 18 - 29.96 0 None
2018-11-17 20:00 40 27 30 60 290° 10 20 - 29.93 0 Peak wind: 19 mph (17 kts) from 310° at 50 min
2018-11-17 19:00 42 28 33 57 290° 14 20 - 29.89 0 Peak wind: 23 mph (20 kts) from 300° at 38 min
2018-11-17 18:00 42 28 32 57 300° 15 25 - 29.89 0 Peak wind: 27 mph (24 kts) from 310° at 04 min
2018-11-17 17:00 42 27 32 54 290° 16 25 - 29.88 0 Peak wind: 29 mph (26 kts) from 290° at 36 min
2018-11-17 16:00 40 28 29 61 290° 16 26 - 29.88 0 Peak wind: 26 mph (23 kts) from 290° at 54 min

Support USWX by starting your Amazon purchase here.